Time;durP1;ratioP1;P1;durP2;ratioP2;P2;SDS_P1;SDS_P2;PMS_P1;PMS_P2;Temp;Humidity;BMP_temperature;BMP_pressure;BME280_temperature;BME280_humidity;BME280_pressure;Samples;Min_cycle;Max_cycle;Signal;HPM_P1;HPM_P2
2021/04/22 00:00:10;;;;;;;13.83;12.60;;;4.50;99.90;;;;;;5022240;28;20477;-71
2021/04/22 00:02:38;;;;;;;18.97;13.07;;;4.50;99.90;;;;;;5020895;28;20536;-70
2021/04/22 00:05:11;;;;;;;21.93;13.53;;;4.40;99.90;;;;;;5023580;28;20464;-72
2021/04/22 00:07:37;;;;;;;14.03;12.47;;;4.30;99.90;;;;;;5017288;28;20472;-71
2021/04/22 00:10:09;;;;;;;16.07;12.80;;;4.20;99.90;;;;;;5023561;28;20491;-71
2021/04/22 00:12:36;;;;;;;19.63;13.90;;;4.10;99.90;;;;;;5016238;28;20979;-71
2021/04/22 00:15:03;;;;;;;16.60;14.37;;;4.10;99.90;;;;;;5029241;28;20551;-70
2021/04/22 00:17:30;;;;;;;20.50;12.63;;;4.10;99.90;;;;;;5025938;28;20884;-70
2021/04/22 00:19:57;;;;;;;15.57;12.70;;;4.10;99.90;;;;;;5022341;28;20808;-70
2021/04/22 00:22:23;;;;;;;27.83;13.60;;;4.00;99.90;;;;;;5020078;28;20484;-70
2021/04/22 00:24:51;;;;;;;14.73;12.97;;;4.00;99.90;;;;;;5023974;28;20459;-71
2021/04/22 00:27:17;;;;;;;18.23;12.63;;;3.90;99.90;;;;;;5024008;28;20473;-70
2021/04/22 00:29:44;;;;;;;16.70;12.80;;;3.90;99.90;;;;;;5022182;28;20546;-71
2021/04/22 00:32:10;;;;;;;13.03;11.90;;;3.80;99.90;;;;;;5020974;28;20476;-70
2021/04/22 00:34:37;;;;;;;16.50;13.20;;;3.70;99.90;;;;;;5022280;28;20465;-71
2021/04/22 00:37:04;;;;;;;15.67;13.47;;;3.70;99.90;;;;;;5020949;28;20831;-70
2021/04/22 00:39:30;;;;;;;16.40;13.13;;;3.60;99.90;;;;;;5025381;28;20471;-71
2021/04/22 00:41:57;;;;;;;17.90;12.30;;;3.60;99.90;;;;;;5023042;28;20705;-70
2021/04/22 00:44:23;;;;;;;23.00;13.30;;;3.60;99.90;;;;;;5020810;28;20831;-71
2021/04/22 00:46:50;;;;;;;13.17;12.00;;;3.60;99.90;;;;;;5018666;28;20472;-71
2021/04/22 00:49:17;;;;;;;17.10;12.90;;;3.60;99.90;;;;;;5019643;28;20841;-71
2021/04/22 00:51:45;;;;;;;21.30;12.60;;;3.50;99.90;;;;;;5022696;28;20473;-70
2021/04/22 00:54:13;;;;;;;15.67;12.30;;;3.40;99.90;;;;;;5020662;28;21062;-71
2021/04/22 00:56:39;;;;;;;18.30;12.80;;;3.50;99.90;;;;;;5017667;28;20460;-71
2021/04/22 00:59:06;;;;;;;13.30;12.20;;;3.40;99.90;;;;;;5023382;28;20464;-71
2021/04/22 01:01:32;;;;;;;15.53;13.00;;;3.20;99.90;;;;;;5022870;28;20840;-71
2021/04/22 01:03:58;;;;;;;14.13;12.97;;;3.00;99.90;;;;;;5021846;28;20463;-71
2021/04/22 01:06:25;;;;;;;21.97;12.97;;;2.90;99.90;;;;;;5025622;28;20466;-71
2021/04/22 01:08:51;;;;;;;13.57;12.30;;;3.00;99.90;;;;;;5024372;28;20860;-71
2021/04/22 01:11:19;;;;;;;16.93;13.03;;;3.00;99.90;;;;;;5023613;28;20495;-71
2021/04/22 01:13:45;;;;;;;22.27;13.17;;;3.00;99.90;;;;;;5016608;28;20461;-71
2021/04/22 01:16:11;;;;;;;18.63;12.90;;;3.00;99.90;;;;;;5024525;28;20464;-71
2021/04/22 01:18:37;;;;;;;17.07;12.77;;;2.90;99.90;;;;;;5026067;28;20473;-71
2021/04/22 01:21:04;;;;;;;27.83;13.93;;;2.90;99.90;;;;;;5023476;28;21106;-72
2021/04/22 01:23:32;;;;;;;14.70;12.77;;;2.90;99.90;;;;;;5018197;28;20548;-71
2021/04/22 01:25:58;;;;;;;19.47;13.37;;;2.90;99.90;;;;;;5024135;28;20490;-71
2021/04/22 01:28:27;;;;;;;16.37;13.20;;;2.90;99.90;;;;;;5020786;28;20464;-72
2021/04/22 01:30:55;;;;;;;17.93;13.37;;;2.90;99.90;;;;;;5019352;28;21097;-71
2021/04/22 01:33:24;;;;;;;16.50;13.17;;;2.90;99.90;;;;;;5022995;28;21011;-71
2021/04/22 01:35:53;;;;;;;18.30;12.80;;;2.90;99.90;;;;;;5025599;28;21105;-72
2021/04/22 01:38:20;;;;;;;14.83;13.30;;;2.70;99.90;;;;;;5019185;28;20829;-72
2021/04/22 01:40:48;;;;;;;21.53;12.43;;;2.50;99.90;;;;;;5024146;28;20952;-72
2021/04/22 01:43:14;;;;;;;13.47;12.40;;;2.40;99.90;;;;;;5016875;28;20464;-72
2021/04/22 01:45:40;;;;;;;22.80;14.30;;;2.20;99.90;;;;;;5022606;28;20511;-73
2021/04/22 01:48:08;;;;;;;17.20;13.00;;;2.10;99.90;;;;;;5020950;28;20463;-71
2021/04/22 01:50:36;;;;;;;17.97;13.20;;;1.90;99.90;;;;;;5023499;28;20507;-72
2021/04/22 01:53:05;;;;;;;18.13;12.63;;;1.80;99.90;;;;;;5016974;28;20529;-71
2021/04/22 01:55:33;;;;;;;17.80;13.40;;;1.80;99.90;;;;;;5024205;28;20461;-71
2021/04/22 01:58:01;;;;;;;17.50;13.10;;;1.70;99.90;;;;;;5022149;28;20906;-72
2021/04/22 02:00:30;;;;;;;14.67;13.37;;;1.60;99.90;;;;;;5022504;28;20464;-72
2021/04/22 02:02:56;;;;;;;15.33;13.50;;;1.60;99.90;;;;;;5023751;28;20463;-72
2021/04/22 02:05:22;;;;;;;23.60;13.80;;;1.50;99.90;;;;;;5017448;28;20469;-71
2021/04/22 02:07:49;;;;;;;20.17;13.37;;;1.60;99.90;;;;;;5019504;28;20463;-72
2021/04/22 02:10:16;;;;;;;19.20;13.80;;;1.60;99.90;;;;;;5026010;28;20973;-72
2021/04/22 02:12:42;;;;;;;17.83;14.23;;;1.60;99.90;;;;;;5020232;28;20469;-72
2021/04/22 02:15:13;;;;;;;14.77;13.33;;;1.50;99.90;;;;;;5018356;28;20488;-71
2021/04/22 02:17:39;;;;;;;36.93;14.57;;;1.40;99.90;;;;;;5022210;28;20997;-72
2021/04/22 02:20:08;;;;;;;14.27;13.17;;;1.40;99.90;;;;;;5023919;28;20514;-72
2021/04/22 02:22:35;;;;;;;17.20;14.20;;;1.40;99.90;;;;;;5021613;28;20978;-73
2021/04/22 02:25:03;;;;;;;15.73;13.27;;;1.40;99.90;;;;;;5019471;28;20501;-72
2021/04/22 02:27:31;;;;;;;18.67;13.03;;;1.30;99.90;;;;;;5020461;28;20470;-71
2021/04/22 02:29:57;;;;;;;17.63;14.87;;;1.30;99.90;;;;;;5021300;28;20512;-72
2021/04/22 02:32:26;;;;;;;17.43;13.40;;;1.20;99.90;;;;;;5021447;28;20489;-72
2021/04/22 02:34:53;;;;;;;22.33;14.50;;;1.20;99.90;;;;;;5021596;28;20481;-72
2021/04/22 02:37:19;;;;;;;17.07;12.97;;;1.20;99.90;;;;;;5017586;28;20831;-72
2021/04/22 02:39:46;;;;;;;19.10;14.00;;;1.10;99.90;;;;;;5022678;28;20471;-72
2021/04/22 02:42:12;;;;;;;15.20;14.00;;;1.10;99.90;;;;;;5017597;28;20475;-72
2021/04/22 02:44:39;;;;;;;14.57;13.20;;;1.00;99.90;;;;;;5021998;28;20463;-72
2021/04/22 02:47:06;;;;;;;16.70;13.63;;;1.10;99.90;;;;;;5021803;28;20551;-72
2021/04/22 02:49:33;;;;;;;14.90;13.63;;;1.10;99.90;;;;;;5022661;28;20824;-72
2021/04/22 02:52:01;;;;;;;19.70;14.23;;;1.10;99.90;;;;;;5018682;28;20456;-72
2021/04/22 02:54:28;;;;;;;17.40;13.70;;;1.00;99.90;;;;;;5017608;28;20882;-71
2021/04/22 02:56:55;;;;;;;19.13;14.43;;;0.90;99.90;;;;;;5015305;28;20519;-72
2021/04/22 02:59:21;;;;;;;18.23;14.60;;;1.00;99.90;;;;;;5017332;28;20825;-72
2021/04/22 03:01:48;;;;;;;28.57;14.50;;;0.90;99.90;;;;;;5018444;28;20472;-72
2021/04/22 03:04:14;;;;;;;24.17;15.97;;;0.90;99.90;;;;;;5019121;28;20459;-71
2021/04/22 03:06:41;;;;;;;23.97;14.13;;;1.00;99.90;;;;;;5018629;28;20822;-71
2021/04/22 03:09:08;;;;;;;14.83;13.73;;;0.90;99.90;;;;;;5018729;28;20470;-72
2021/04/22 03:11:35;;;;;;;24.23;14.27;;;0.90;99.90;;;;;;5024125;28;21062;-72
2021/04/22 03:14:02;;;;;;;23.23;15.37;;;0.90;99.90;;;;;;5022724;28;20821;-72
2021/04/22 03:16:29;;;;;;;15.60;14.13;;;0.80;99.90;;;;;;5020136;28;20547;-71
2021/04/22 03:18:55;;;;;;;17.60;14.93;;;0.80;99.90;;;;;;5017291;28;20551;-72
2021/04/22 03:21:22;;;;;;;15.20;13.87;;;0.70;99.90;;;;;;5015629;28;20469;-72
2021/04/22 03:23:51;;;;;;;16.97;13.80;;;0.70;99.90;;;;;;5021128;28;20468;-72
2021/04/22 03:26:18;;;;;;;16.37;14.73;;;0.70;99.90;;;;;;5019448;28;20531;-72
2021/04/22 03:28:47;;;;;;;15.83;14.33;;;0.70;99.90;;;;;;5017278;28;20472;-71
2021/04/22 03:31:14;;;;;;;16.13;14.60;;;0.60;99.90;;;;;;5023910;28;20495;-71
2021/04/22 03:33:40;;;;;;;16.73;14.97;;;0.60;99.90;;;;;;5015561;28;20536;-72
2021/04/22 03:36:07;;;;;;;19.97;15.40;;;0.50;99.90;;;;;;5018151;28;20482;-71
2021/04/22 03:38:34;;;;;;;16.27;13.70;;;0.50;99.90;;;;;;5018207;28;20467;-72
2021/04/22 03:41:01;;;;;;;17.47;14.70;;;0.50;99.90;;;;;;5022760;28;20461;-72
2021/04/22 03:43:28;;;;;;;16.77;14.27;;;0.50;99.90;;;;;;5020893;28;20473;-71
2021/04/22 03:45:54;;;;;;;22.03;15.13;;;0.50;99.90;;;;;;5022006;28;20532;-71
2021/04/22 03:48:21;;;;;;;17.73;15.73;;;0.50;99.90;;;;;;5016144;28;20473;-72
2021/04/22 03:50:47;;;;;;;19.87;15.27;;;0.50;99.90;;;;;;5021198;28;20880;-72
2021/04/22 03:53:15;;;;;;;16.23;14.80;;;0.50;99.90;;;;;;5017873;28;20482;-71
2021/04/22 03:55:41;;;;;;;19.67;17.50;;;0.50;99.90;;;;;;5010705;28;20460;-72
2021/04/22 03:58:09;;;;;;;20.53;15.80;;;0.50;99.90;;;;;;5021289;28;20849;-72
2021/04/22 04:00:36;;;;;;;35.77;17.10;;;0.40;99.90;;;;;;5021424;28;20472;-72
2021/04/22 04:03:03;;;;;;;16.97;15.37;;;0.40;99.90;;;;;;5020188;28;20467;-71
2021/04/22 04:05:29;;;;;;;18.90;16.77;;;0.40;99.90;;;;;;5018967;28;20962;-71
2021/04/22 04:07:56;;;;;;;21.97;16.77;;;0.40;99.90;;;;;;5017926;28;20481;-72
2021/04/22 04:10:23;;;;;;;21.30;16.70;;;0.40;99.90;;;;;;5013473;28;20563;-71
2021/04/22 04:12:49;;;;;;;23.20;16.60;;;0.40;99.90;;;;;;5019001;28;20816;-71
2021/04/22 04:15:17;;;;;;;18.97;17.00;;;0.40;99.90;;;;;;5023406;28;20983;-71
2021/04/22 04:17:43;;;;;;;20.57;17.83;;;0.30;99.90;;;;;;5022040;28;20861;-73
2021/04/22 04:20:12;;;;;;;27.63;17.43;;;0.40;99.90;;;;;;5015929;28;20475;-71
2021/04/22 04:22:39;;;;;;;18.20;16.60;;;0.40;99.90;;;;;;5017804;28;20457;-72
2021/04/22 04:25:07;;;;;;;23.40;17.50;;;0.40;99.90;;;;;;5018224;28;20471;-72
2021/04/22 04:27:34;;;;;;;19.67;16.83;;;0.40;99.90;;;;;;5021311;28;20464;-72
2021/04/22 04:30:01;;;;;;;24.77;17.83;;;0.40;99.90;;;;;;5018911;28;20495;-71
2021/04/22 04:32:28;;;;;;;21.20;16.93;;;0.40;99.90;;;;;;5024895;28;20492;-72
2021/04/22 04:34:56;;;;;;;22.80;16.60;;;0.40;99.90;;;;;;5021615;28;20973;-72
2021/04/22 04:37:22;;;;;;;19.13;17.13;;;0.40;99.90;;;;;;5023840;28;20471;-71
2021/04/22 04:39:49;;;;;;;19.47;17.90;;;0.40;99.90;;;;;;5018363;28;21032;-71
2021/04/22 04:42:15;;;;;;;22.47;17.57;;;0.40;99.90;;;;;;5022634;28;20487;-72
2021/04/22 04:44:44;;;;;;;20.20;17.10;;;0.50;99.90;;;;;;5023915;28;20467;-72
2021/04/22 04:47:11;;;;;;;22.27;20.07;;;0.50;99.90;;;;;;5023430;28;20465;-72
2021/04/22 04:49:38;;;;;;;19.00;17.50;;;0.50;99.90;;;;;;5023013;28;20471;-71
2021/04/22 04:52:05;;;;;;;19.70;18.00;;;0.60;99.90;;;;;;5020766;28;20965;-72
2021/04/22 04:54:31;;;;;;;20.33;18.53;;;0.60;99.90;;;;;;5025222;28;20466;-72
2021/04/22 04:56:58;;;;;;;18.70;17.13;;;0.70;99.90;;;;;;5023543;28;20468;-72
2021/04/22 04:59:25;;;;;;;18.60;16.83;;;0.70;99.90;;;;;;5019635;28;20475;-72
2021/04/22 05:01:51;;;;;;;24.77;18.13;;;0.80;99.90;;;;;;5027786;28;21027;-72
2021/04/22 05:04:18;;;;;;;20.50;18.27;;;0.80;99.90;;;;;;5018783;28;20707;-72
2021/04/22 05:06:45;;;;;;;22.47;18.03;;;0.90;99.90;;;;;;5019695;28;20536;-71
2021/04/22 05:09:11;;;;;;;25.07;18.00;;;0.90;99.90;;;;;;5024296;28;20469;-72
2021/04/22 05:11:37;;;;;;;20.90;18.77;;;0.90;99.90;;;;;;5015824;28;20508;-72
2021/04/22 05:14:04;;;;;;;23.30;18.63;;;1.00;99.90;;;;;;5021441;28;20462;-72
2021/04/22 05:16:31;;;;;;;27.93;18.83;;;1.10;99.90;;;;;;5019971;28;20480;-72
2021/04/22 05:18:57;;;;;;;20.80;18.63;;;1.20;99.90;;;;;;5021594;28;20476;-72
2021/04/22 05:21:24;;;;;;;25.70;19.43;;;1.20;99.90;;;;;;5024324;28;20466;-72
2021/04/22 05:23:51;;;;;;;20.07;17.70;;;1.30;99.90;;;;;;5017325;28;20465;-72
2021/04/22 05:26:19;;;;;;;20.67;18.53;;;1.40;99.90;;;;;;5023185;28;20471;-72
2021/04/22 05:28:46;;;;;;;24.93;18.77;;;1.50;99.90;;;;;;5017208;28;21142;-72
2021/04/22 05:31:12;;;;;;;29.93;18.73;;;1.60;99.90;;;;;;5023260;28;20980;-72
2021/04/22 05:33:38;;;;;;;22.77;20.70;;;1.80;99.90;;;;;;5022274;28;20481;-72
2021/04/22 05:36:06;;;;;;;27.43;20.03;;;2.00;99.90;;;;;;5015772;28;20493;-72
2021/04/22 05:38:32;;;;;;;22.60;20.13;;;2.20;99.90;;;;;;5020644;28;21090;-73
2021/04/22 05:41:00;;;;;;;21.87;19.77;;;2.30;99.90;;;;;;5021244;28;20526;-72
2021/04/22 05:43:27;;;;;;;22.70;20.40;;;2.60;99.90;;;;;;5022765;28;20744;-73
2021/04/22 05:45:53;;;;;;;25.57;20.17;;;2.70;99.90;;;;;;5022682;28;20464;-71
2021/04/22 05:48:21;;;;;;;25.33;20.77;;;2.80;99.90;;;;;;5020690;28;20526;-72
2021/04/22 05:50:47;;;;;;;23.93;20.40;;;3.00;99.90;;;;;;5024119;28;20484;-72
2021/04/22 05:53:14;;;;;;;27.13;19.57;;;3.10;99.90;;;;;;5017784;28;20477;-73
2021/04/22 05:55:41;;;;;;;25.13;19.33;;;3.30;99.90;;;;;;5013189;28;20480;-72
2021/04/22 05:58:08;;;;;;;24.63;20.03;;;3.50;99.90;;;;;;5022152;28;21011;-72
2021/04/22 06:00:34;;;;;;;24.70;20.17;;;3.70;99.90;;;;;;5016354;28;20456;-71
2021/04/22 06:03:01;;;;;;;22.63;19.67;;;3.90;99.90;;;;;;5018847;28;20488;-72
2021/04/22 06:05:27;;;;;;;34.60;19.53;;;4.00;99.90;;;;;;5024697;28;20524;-72
2021/04/22 06:07:54;;;;;;;27.30;19.77;;;4.00;99.90;;;;;;5022367;28;20462;-72
2021/04/22 06:10:22;;;;;;;21.37;19.30;;;4.10;99.90;;;;;;5021371;28;20487;-73
2021/04/22 06:12:49;;;;;;;34.60;18.70;;;4.20;99.90;;;;;;5018379;28;20482;-73
2021/04/22 06:15:18;;;;;;;34.80;19.53;;;4.40;99.90;;;;;;5022707;28;20463;-72
2021/04/22 06:17:44;;;;;;;22.13;19.60;;;4.50;99.90;;;;;;5017856;28;20967;-73
2021/04/22 06:20:14;;;;;;;46.23;19.93;;;4.70;99.90;;;;;;5022491;28;20457;-73
2021/04/22 06:22:40;;;;;;;21.67;19.40;;;4.80;99.90;;;;;;5020334;28;20464;-72
2021/04/22 06:25:08;;;;;;;27.67;19.00;;;4.90;99.90;;;;;;5022098;28;20536;-72
2021/04/22 06:27:34;;;;;;;23.33;18.50;;;4.90;99.90;;;;;;5019253;28;20518;-71
2021/04/22 06:30:01;;;;;;;24.50;17.30;;;5.00;99.90;;;;;;5023632;28;20485;-72
2021/04/22 06:32:28;;;;;;;28.80;18.40;;;5.00;99.90;;;;;;5015654;28;20500;-71
2021/04/22 06:34:55;;;;;;;24.17;18.20;;;5.10;99.90;;;;;;5019327;28;20465;-72
2021/04/22 06:37:22;;;;;;;26.33;18.97;;;5.20;99.90;;;;;;5022169;28;20556;-72
2021/04/22 06:39:48;;;;;;;24.33;18.33;;;5.30;99.90;;;;;;5016948;28;20477;-73
2021/04/22 06:42:14;;;;;;;20.07;16.80;;;5.30;99.90;;;;;;5020933;28;20465;-72
2021/04/22 06:44:42;;;;;;;37.30;18.50;;;5.50;99.90;;;;;;5024374;28;20461;-72
2021/04/22 06:47:08;;;;;;;21.77;16.37;;;5.60;99.90;;;;;;5018464;28;20464;-72
2021/04/22 06:49:36;;;;;;;17.13;15.73;;;5.70;99.90;;;;;;5016634;28;20465;-71
2021/04/22 06:52:03;;;;;;;29.13;16.73;;;5.70;99.90;;;;;;5018699;28;20538;-72
2021/04/22 06:54:30;;;;;;;24.90;16.77;;;5.80;99.90;;;;;;5017543;28;20963;-73
2021/04/22 06:56:57;;;;;;;18.63;16.30;;;5.90;99.90;;;;;;5021602;28;20890;-72
2021/04/22 06:59:23;;;;;;;24.67;17.37;;;6.10;99.90;;;;;;5014605;28;20963;-72
2021/04/22 07:01:50;;;;;;;18.93;16.93;;;6.30;99.90;;;;;;5018895;28;20461;-72
2021/04/22 07:04:16;;;;;;;20.23;17.20;;;6.60;99.90;;;;;;5015273;28;20457;-72
2021/04/22 07:06:44;;;;;;;19.40;16.83;;;6.60;99.90;;;;;;5018521;28;20518;-72
2021/04/22 07:09:11;;;;;;;18.63;16.97;;;6.80;99.90;;;;;;5019029;28;20461;-72
2021/04/22 07:11:37;;;;;;;18.73;17.00;;;7.30;99.90;;;;;;5021968;28;20583;-71
2021/04/22 07:14:04;;;;;;;20.77;16.73;;;7.50;99.90;;;;;;5014088;28;20454;-71
2021/04/22 07:16:30;;;;;;;19.23;17.10;;;7.70;99.90;;;;;;5012797;28;20466;-71
2021/04/22 07:18:57;;;;;;;19.90;18.27;;;7.90;99.90;;;;;;5008208;28;21018;-73
2021/04/22 07:21:24;;;;;;;18.87;17.27;;;7.90;99.90;;;;;;5017590;28;20462;-71
2021/04/22 07:23:51;;;;;;;22.43;15.93;;;7.80;99.90;;;;;;5017166;28;20465;-71
2021/04/22 07:26:18;;;;;;;20.50;17.03;;;7.70;99.90;;;;;;5011267;28;21008;-73
2021/04/22 07:28:45;;;;;;;18.80;17.13;;;7.60;99.90;;;;;;5013206;28;20519;-73
2021/04/22 07:31:11;;;;;;;23.33;17.23;;;7.70;99.90;;;;;;5008386;28;20504;-72
2021/04/22 07:33:37;;;;;;;23.77;17.20;;;7.60;99.90;;;;;;5009041;28;20557;-74
2021/04/22 07:36:04;;;;;;;22.23;17.30;;;7.60;99.90;;;;;;5014226;28;20486;-73
2021/04/22 07:38:31;;;;;;;17.83;16.33;;;7.70;99.90;;;;;;5013575;28;20469;-72
2021/04/22 07:40:59;;;;;;;18.47;16.73;;;7.70;99.90;;;;;;5008967;28;20462;-73
2021/04/22 07:43:26;;;;;;;18.03;16.40;;;7.70;99.90;;;;;;5010406;28;20517;-73
2021/04/22 07:45:52;;;;;;;24.37;16.57;;;7.80;99.90;;;;;;5013727;28;20965;-72
2021/04/22 07:48:19;;;;;;;17.70;16.30;;;8.10;99.90;;;;;;5009616;28;20467;-71
2021/04/22 07:50:45;;;;;;;17.73;16.10;;;8.20;99.90;;;;;;5016960;28;20563;-72
2021/04/22 07:53:12;;;;;;;24.90;17.57;;;8.00;99.90;;;;;;5014020;28;21391;-73
2021/04/22 07:55:44;;;;;;;17.90;16.43;;;8.00;99.90;;;;;;5012934;28;20466;-72
2021/04/22 07:58:12;;;;;;;16.97;15.30;;;8.10;99.90;;;;;;5009053;28;20866;-73
2021/04/22 08:00:39;;;;;;;17.70;16.27;;;8.30;99.90;;;;;;5013380;28;20487;-72
2021/04/22 08:03:06;;;;;;;18.60;16.97;;;8.50;99.90;;;;;;5018453;28;20480;-73
2021/04/22 08:05:36;;;;;;;20.40;17.60;;;8.50;99.90;;;;;;5011562;28;20468;-72
2021/04/22 08:08:04;;;;;;;19.53;17.27;;;8.60;99.90;;;;;;5015209;28;20522;-72
2021/04/22 08:10:32;;;;;;;22.23;16.97;;;8.80;99.90;;;;;;5020059;28;20497;-72
2021/04/22 08:13:02;;;;;;;17.97;16.47;;;8.70;99.90;;;;;;5012894;28;20494;-72
2021/04/22 08:15:29;;;;;;;18.03;16.10;;;9.00;99.90;;;;;;5020204;28;20865;-72
2021/04/22 08:17:56;;;;;;;17.53;16.23;;;8.80;99.90;;;;;;5011406;28;20465;-73
2021/04/22 08:20:25;;;;;;;18.97;17.13;;;8.80;99.90;;;;;;5015119;28;21167;-71
2021/04/22 08:22:53;;;;;;;17.93;16.20;;;8.80;99.90;;;;;;5012958;28;20538;-73
2021/04/22 08:25:25;;;;;;;20.50;16.57;;;8.90;99.90;;;;;;5017943;28;20495;-72
2021/04/22 08:27:54;;;;;;;19.63;16.30;;;9.10;99.90;;;;;;5013488;28;20517;-73
2021/04/22 08:30:23;;;;;;;17.97;16.10;;;9.00;99.90;;;;;;5019446;28;20565;-72
2021/04/22 08:32:50;;;;;;;18.40;16.73;;;9.10;99.90;;;;;;5014077;28;20492;-72
2021/04/22 08:35:17;;;;;;;20.00;17.60;;;9.70;99.90;;;;;;5010350;28;20735;-72
2021/04/22 08:37:43;;;;;;;19.03;17.17;;;9.80;99.90;;;;;;5015761;28;20719;-72
2021/04/22 08:40:13;;;;;;;19.30;17.57;;;9.90;99.90;;;;;;5010410;28;20518;-73
2021/04/22 08:42:41;;;;;;;19.50;17.70;;;9.90;99.90;;;;;;5017847;28;20545;-73
2021/04/22 08:45:09;;;;;;;20.50;18.63;;;9.70;99.90;;;;;;5021148;28;20859;-73
2021/04/22 08:47:36;;;;;;;17.87;16.50;;;9.60;99.90;;;;;;5011497;28;20464;-73
2021/04/22 08:50:04;;;;;;;19.97;18.00;;;10.10;99.90;;;;;;5014577;28;20681;-73
2021/04/22 08:52:31;;;;;;;19.17;17.57;;;11.20;99.80;;;;;;5018139;28;21004;-73
2021/04/22 08:54:58;;;;;;;19.43;17.70;;;12.40;97.60;;;;;;5016520;28;20948;-73
2021/04/22 08:57:25;;;;;;;19.90;17.97;;;12.50;96.70;;;;;;5018865;28;20818;-73
2021/04/22 08:59:54;;;;;;;19.27;17.73;;;13.70;95.60;;;;;;5012926;28;20465;-74
2021/04/22 09:02:21;;;;;;;20.10;17.10;;;14.70;92.90;;;;;;5018048;28;20539;-74
2021/04/22 09:04:49;;;;;;;25.00;16.93;;;15.30;91.40;;;;;;5016693;28;20469;-71
2021/04/22 09:07:17;;;;;;;17.87;16.13;;;15.50;90.10;;;;;;5012344;28;20470;-72
2021/04/22 09:09:44;;;;;;;17.43;16.30;;;15.70;86.60;;;;;;5016133;28;20887;-70
2021/04/22 09:12:16;;;;;;;18.60;16.70;;;15.70;85.70;;;;;;5006395;28;20587;-71
2021/04/22 09:14:52;;;;;;;18.23;16.77;;;14.10;88.20;;;;;;5015616;28;20875;-71
2021/04/22 09:17:21;;;;;;;19.10;17.50;;;13.40;90.30;;;;;;5012636;28;20626;-71
2021/04/22 09:19:47;;;;;;;18.67;17.00;;;11.80;91.60;;;;;;5014013;28;20972;-71
2021/04/22 09:22:13;;;;;;;21.30;16.90;;;11.10;92.70;;;;;;5011325;28;20826;-71
2021/04/22 09:24:41;;;;;;;17.80;16.40;;;11.60;91.60;;;;;;5010888;28;20862;-72
2021/04/22 09:27:13;;;;;;;18.03;16.43;;;12.20;89.90;;;;;;5014164;28;20464;-71
2021/04/22 09:29:44;;;;;;;18.00;16.60;;;12.90;90.40;;;;;;5017472;28;20475;-72
2021/04/22 09:32:14;;;;;;;18.07;16.40;;;12.60;90.00;;;;;;5014205;28;20492;-71
2021/04/22 09:34:44;;;;;;;17.83;16.10;;;11.90;89.80;;;;;;5011270;28;20478;-71
2021/04/22 09:37:10;;;;;;;16.93;15.50;;;10.90;90.90;;;;;;5011441;28;20935;-70
2021/04/22 09:39:37;;;;;;;18.17;16.50;;;11.20;91.80;;;;;;5014778;28;20755;-71
2021/04/22 09:42:09;;;;;;;17.53;15.80;;;11.90;90.20;;;;;;5013042;28;20474;-71
2021/04/22 09:44:36;;;;;;;17.80;16.30;;;12.70;90.10;;;;;;5016022;28;20948;-72
2021/04/22 09:47:07;;;;;;;21.13;16.70;;;13.80;89.30;;;;;;5015817;28;20460;-72
2021/04/22 09:49:44;;;;;;;16.37;15.33;;;14.50;84.30;;;;;;5010947;28;20470;-72
2021/04/22 09:52:14;;;;;;;17.20;15.90;;;14.90;81.80;;;;;;5016609;28;20555;-72
2021/04/22 09:54:45;;;;;;;17.50;15.90;;;14.90;82.70;;;;;;5012554;28;20468;-72
2021/04/22 09:57:22;;;;;;;17.77;16.37;;;15.30;80.50;;;;;;5012767;28;20453;-72
2021/04/22 09:59:48;;;;;;;17.27;15.90;;;15.20;79.80;;;;;;5019984;28;21002;-72
2021/04/22 10:02:15;;;;;;;17.20;15.90;;;16.30;78.00;;;;;;5012068;28;20460;-72
2021/04/22 10:04:44;;;;;;;17.27;15.77;;;16.30;76.20;;;;;;5015883;28;20461;-72
2021/04/22 10:07:25;;;;;;;18.03;16.53;;;17.10;76.60;;;;;;5018767;28;20469;-72
2021/04/22 10:09:53;;;;;;;19.47;17.50;;;17.80;74.30;;;;;;5014814;28;20459;-71
2021/04/22 10:12:27;;;;;;;19.00;16.90;;;17.70;75.70;;;;;;5011247;28;20979;-71
2021/04/22 10:14:54;;;;;;;18.57;17.17;;;17.10;71.30;;;;;;5009118;28;20466;-72
2021/04/22 10:17:23;;;;;;;19.17;17.43;;;15.50;73.10;;;;;;5017317;28;20466;-71
2021/04/22 10:20:01;;;;;;;19.43;17.13;;;13.80;76.10;;;;;;5014683;28;20507;-70
2021/04/22 10:22:32;;;;;;;19.00;16.50;;;13.20;76.60;;;;;;5014170;28;20464;-72
2021/04/22 10:25:06;;;;;;;17.13;15.83;;;13.60;79.90;;;;;;5011885;28;20477;-71
2021/04/22 10:27:34;;;;;;;20.90;18.93;;;14.30;78.80;;;;;;5016565;28;20457;-71
2021/04/22 10:30:00;;;;;;;19.97;18.13;;;14.30;77.10;;;;;;5011277;28;20825;-71
2021/04/22 10:32:28;;;;;;;17.40;16.00;;;14.20;80.70;;;;;;5011808;28;20511;-71
2021/04/22 10:34:55;;;;;;;31.67;18.00;;;14.40;79.70;;;;;;5014983;28;20475;-71
2021/04/22 10:37:23;;;;;;;19.33;17.47;;;14.10;82.10;;;;;;5020006;28;20456;-71
2021/04/22 10:39:54;;;;;;;23.07;18.50;;;13.50;80.40;;;;;;5017861;28;20464;-71
2021/04/22 10:42:21;;;;;;;17.43;15.63;;;12.40;84.00;;;;;;5012111;28;20551;-71
2021/04/22 10:44:49;;;;;;;19.80;16.73;;;12.10;86.60;;;;;;5015733;28;20534;-71
2021/04/22 10:47:17;;;;;;;18.73;17.20;;;12.80;85.60;;;;;;5013090;28;20504;-71
2021/04/22 10:49:43;;;;;;;18.77;16.83;;;13.30;86.80;;;;;;5010892;28;21011;-71
2021/04/22 10:52:10;;;;;;;18.43;16.67;;;13.20;87.30;;;;;;5015887;28;20494;-71
2021/04/22 10:54:39;;;;;;;18.40;16.90;;;13.30;85.20;;;;;;5016716;28;20469;-72
2021/04/22 10:57:08;;;;;;;21.13;16.83;;;13.20;83.00;;;;;;5012170;28;20472;-72
2021/04/22 10:59:36;;;;;;;18.70;17.20;;;13.80;82.20;;;;;;5010994;28;20470;-72
2021/04/22 11:02:15;;;;;;;19.73;17.70;;;13.90;81.60;;;;;;5012100;28;20476;-72
2021/04/22 11:04:42;;;;;;;17.07;15.77;;;13.40;83.20;;;;;;5007352;28;21028;-71
2021/04/22 11:07:18;;;;;;;17.57;16.07;;;13.10;83.70;;;;;;5014820;28;20560;-72
2021/04/22 11:09:45;;;;;;;18.27;16.60;;;13.70;83.30;;;;;;5019661;28;20975;-72
2021/04/22 11:12:12;;;;;;;19.37;17.07;;;14.50;82.30;;;;;;5011736;28;20857;-72
2021/04/22 11:14:41;;;;;;;18.93;17.43;;;15.20;79.50;;;;;;5011510;28;20456;-72
2021/04/22 11:17:09;;;;;;;16.93;15.93;;;15.30;77.60;;;;;;5014540;28;20493;-72
2021/04/22 11:19:39;;;;;;;17.83;16.57;;;15.90;78.30;;;;;;5013848;28;20495;-72
2021/04/22 11:22:19;;;;;;;17.73;16.40;;;16.20;76.80;;;;;;5010901;28;20474;-72
2021/04/22 11:24:54;;;;;;;18.73;17.20;;;16.20;72.30;;;;;;5014505;28;20908;-71
2021/04/22 11:27:22;;;;;;;17.67;16.63;;;17.10;71.20;;;;;;5010933;28;20491;-71
2021/04/22 11:29:51;;;;;;;17.60;16.30;;;17.40;72.60;;;;;;5015232;28;20955;-71
2021/04/22 11:32:30;;;;;;;18.03;16.30;;;17.10;68.40;;;;;;5011499;28;20513;-71
2021/04/22 11:35:10;;;;;;;17.43;15.80;;;16.70;71.10;;;;;;5022781;28;20523;-71
2021/04/22 11:37:41;;;;;;;16.77;15.47;;;17.80;68.80;;;;;;5013497;28;20939;-71
2021/04/22 11:40:12;;;;;;;16.90;15.40;;;17.90;64.70;;;;;;5018704;28;20643;-71
2021/04/22 11:42:40;;;;;;;16.33;15.10;;;18.90;63.60;;;;;;5020075;28;20457;-71
2021/04/22 11:45:08;;;;;;;17.93;16.23;;;19.60;63.10;;;;;;5024178;28;20469;-71
2021/04/22 11:47:35;;;;;;;17.67;15.93;;;19.80;61.50;;;;;;5017262;28;20986;-71
2021/04/22 11:50:15;;;;;;;20.63;16.20;;;19.60;59.80;;;;;;5027736;28;20851;-71
2021/04/22 11:52:48;;;;;;;18.73;16.77;;;17.90;60.80;;;;;;5022143;28;20496;-71
2021/04/22 11:55:20;;;;;;;18.07;16.37;;;17.10;62.80;;;;;;5019075;28;20522;-71
2021/04/22 11:57:55;;;;;;;18.43;16.73;;;17.00;64.40;;;;;;5021310;28;20465;-72
2021/04/22 12:00:24;;;;;;;17.03;15.63;;;17.30;65.20;;;;;;5020784;28;20974;-71
2021/04/22 12:02:51;;;;;;;17.63;16.13;;;17.10;66.70;;;;;;5020583;28;20460;-71
2021/04/22 12:05:19;;;;;;;17.40;15.80;;;16.20;65.30;;;;;;5020926;28;21028;-71
2021/04/22 12:07:55;;;;;;;16.23;14.93;;;16.60;67.50;;;;;;5029728;28;20462;-71
2021/04/22 12:10:21;;;;;;;16.77;15.43;;;16.70;67.10;;;;;;5022914;28;20659;-71
2021/04/22 12:12:48;;;;;;;16.23;14.90;;;16.50;68.30;;;;;;5019616;28;20541;-71
2021/04/22 12:15:17;;;;;;;18.03;16.63;;;16.20;68.00;;;;;;5016633;28;20461;-71
2021/04/22 12:17:45;;;;;;;16.53;14.93;;;15.60;68.20;;;;;;5018450;28;20775;-71
2021/04/22 12:20:12;;;;;;;17.67;15.93;;;16.10;68.00;;;;;;5021037;28;20559;-71
2021/04/22 12:22:41;;;;;;;22.20;16.57;;;16.10;66.90;;;;;;5021215;28;20468;-71
2021/04/22 12:25:13;;;;;;;18.33;16.53;;;16.30;68.60;;;;;;5016496;28;20469;-71
2021/04/22 12:27:46;;;;;;;17.30;15.87;;;16.60;68.90;;;;;;5021799;28;20460;-72
2021/04/22 12:30:25;;;;;;;18.17;16.43;;;17.30;68.70;;;;;;5013660;28;20477;-72
2021/04/22 12:33:00;;;;;;;19.53;16.20;;;18.00;63.20;;;;;;5012286;28;20553;-72
2021/04/22 12:35:29;;;;;;;16.73;15.37;;;18.20;61.40;;;;;;5022440;28;20496;-72